sensor_id;sensor_type;location;lat;lon;timestamp;P1;durP1;ratioP1;P2;durP2;ratioP2
2458;SDS011;1241;50.920;6.936;2022-07-24T00:01:26;14.37;;;11.03;;
2458;SDS011;1241;50.920;6.936;2022-07-24T00:03:52;11.80;;;10.73;;
2458;SDS011;1241;50.920;6.936;2022-07-24T00:06:17;12.53;;;11.30;;
2458;SDS011;1241;50.920;6.936;2022-07-24T00:08:43;11.73;;;10.70;;
2458;SDS011;1241;50.920;6.936;2022-07-24T00:11:09;11.90;;;10.90;;
2458;SDS011;1241;50.920;6.936;2022-07-24T00:13:34;11.23;;;10.30;;
2458;SDS011;1241;50.920;6.936;2022-07-24T00:16:00;13.00;;;11.80;;
2458;SDS011;1241;50.920;6.936;2022-07-24T00:18:26;13.10;;;11.90;;
2458;SDS011;1241;50.920;6.936;2022-07-24T00:20:51;11.87;;;10.97;;
2458;SDS011;1241;50.920;6.936;2022-07-24T00:23:17;12.10;;;11.20;;
2458;SDS011;1241;50.920;6.936;2022-07-24T00:25:43;12.33;;;11.43;;
2458;SDS011;1241;50.920;6.936;2022-07-24T00:28:09;12.07;;;10.93;;
2458;SDS011;1241;50.920;6.936;2022-07-24T00:30:34;12.90;;;11.87;;
2458;SDS011;1241;50.920;6.936;2022-07-24T00:33:02;11.30;;;10.27;;
2458;SDS011;1241;50.920;6.936;2022-07-24T00:35:28;13.03;;;11.97;;
2458;SDS011;1241;50.920;6.936;2022-07-24T00:37:54;10.80;;;9.90;;
2458;SDS011;1241;50.920;6.936;2022-07-24T00:40:19;12.23;;;11.23;;
2458;SDS011;1241;50.920;6.936;2022-07-24T00:42:45;13.63;;;12.53;;
2458;SDS011;1241;50.920;6.936;2022-07-24T00:45:11;12.93;;;11.80;;
2458;SDS011;1241;50.920;6.936;2022-07-24T00:47:37;13.17;;;12.07;;
2458;SDS011;1241;50.920;6.936;2022-07-24T00:50:03;12.23;;;11.03;;
2458;SDS011;1241;50.920;6.936;2022-07-24T00:52:30;12.67;;;11.40;;
2458;SDS011;1241;50.920;6.936;2022-07-24T00:54:56;12.63;;;11.63;;
2458;SDS011;1241;50.920;6.936;2022-07-24T00:57:22;12.93;;;11.80;;
2458;SDS011;1241;50.920;6.936;2022-07-24T00:59:48;12.33;;;11.43;;
2458;SDS011;1241;50.920;6.936;2022-07-24T01:02:13;12.13;;;11.13;;
2458;SDS011;1241;50.920;6.936;2022-07-24T01:04:39;11.77;;;10.87;;
2458;SDS011;1241;50.920;6.936;2022-07-24T01:07:06;13.00;;;11.67;;
2458;SDS011;1241;50.920;6.936;2022-07-24T01:09:32;12.13;;;10.93;;
2458;SDS011;1241;50.920;6.936;2022-07-24T01:11:59;11.60;;;10.73;;
2458;SDS011;1241;50.920;6.936;2022-07-24T01:14:25;13.93;;;12.73;;
2458;SDS011;1241;50.920;6.936;2022-07-24T01:16:51;14.03;;;12.80;;
2458;SDS011;1241;50.920;6.936;2022-07-24T01:19:16;12.80;;;11.60;;
2458;SDS011;1241;50.920;6.936;2022-07-24T01:21:47;13.47;;;12.17;;
2458;SDS011;1241;50.920;6.936;2022-07-24T01:24:13;12.50;;;11.30;;
2458;SDS011;1241;50.920;6.936;2022-07-24T01:26:39;12.37;;;11.37;;
2458;SDS011;1241;50.920;6.936;2022-07-24T01:29:05;12.10;;;11.10;;
2458;SDS011;1241;50.920;6.936;2022-07-24T01:31:30;12.60;;;11.50;;
2458;SDS011;1241;50.920;6.936;2022-07-24T01:33:56;14.23;;;13.13;;
2458;SDS011;1241;50.920;6.936;2022-07-24T01:36:22;12.63;;;11.43;;
2458;SDS011;1241;50.920;6.936;2022-07-24T01:38:48;14.43;;;13.23;;
2458;SDS011;1241;50.920;6.936;2022-07-24T01:41:14;13.80;;;12.60;;
2458;SDS011;1241;50.920;6.936;2022-07-24T01:43:40;14.20;;;13.00;;
2458;SDS011;1241;50.920;6.936;2022-07-24T01:46:05;14.13;;;12.80;;
2458;SDS011;1241;50.920;6.936;2022-07-24T01:48:31;14.23;;;12.93;;
2458;SDS011;1241;50.920;6.936;2022-07-24T01:50:57;14.00;;;12.70;;
2458;SDS011;1241;50.920;6.936;2022-07-24T01:53:23;14.53;;;13.33;;
2458;SDS011;1241;50.920;6.936;2022-07-24T01:55:49;15.23;;;13.73;;
2458;SDS011;1241;50.920;6.936;2022-07-24T01:58:16;14.13;;;12.93;;
2458;SDS011;1241;50.920;6.936;2022-07-24T02:00:42;12.83;;;11.83;;
2458;SDS011;1241;50.920;6.936;2022-07-24T02:03:08;14.93;;;13.43;;
2458;SDS011;1241;50.920;6.936;2022-07-24T02:05:33;13.73;;;12.53;;
2458;SDS011;1241;50.920;6.936;2022-07-24T02:07:59;13.73;;;12.53;;
2458;SDS011;1241;50.920;6.936;2022-07-24T02:10:26;13.67;;;12.47;;
2458;SDS011;1241;50.920;6.936;2022-07-24T02:12:53;13.57;;;12.47;;
2458;SDS011;1241;50.920;6.936;2022-07-24T02:15:20;14.47;;;13.20;;
2458;SDS011;1241;50.920;6.936;2022-07-24T02:17:47;13.50;;;12.40;;
2458;SDS011;1241;50.920;6.936;2022-07-24T02:20:14;15.27;;;13.90;;
2458;SDS011;1241;50.920;6.936;2022-07-24T02:22:40;14.80;;;13.50;;
2458;SDS011;1241;50.920;6.936;2022-07-24T02:25:06;14.83;;;13.60;;
2458;SDS011;1241;50.920;6.936;2022-07-24T02:27:33;15.07;;;13.63;;
2458;SDS011;1241;50.920;6.936;2022-07-24T02:29:58;15.70;;;14.40;;
2458;SDS011;1241;50.920;6.936;2022-07-24T02:32:24;14.20;;;13.00;;
2458;SDS011;1241;50.920;6.936;2022-07-24T02:34:50;14.93;;;13.53;;
2458;SDS011;1241;50.920;6.936;2022-07-24T02:37:16;14.50;;;13.20;;
2458;SDS011;1241;50.920;6.936;2022-07-24T02:39:42;13.77;;;12.77;;
2458;SDS011;1241;50.920;6.936;2022-07-24T02:42:08;13.03;;;12.03;;
2458;SDS011;1241;50.920;6.936;2022-07-24T02:44:34;14.60;;;13.30;;
2458;SDS011;1241;50.920;6.936;2022-07-24T02:46:59;14.67;;;13.30;;
2458;SDS011;1241;50.920;6.936;2022-07-24T02:49:25;14.47;;;13.17;;
2458;SDS011;1241;50.920;6.936;2022-07-24T02:51:51;14.80;;;13.53;;
2458;SDS011;1241;50.920;6.936;2022-07-24T02:54:16;15.23;;;13.93;;
2458;SDS011;1241;50.920;6.936;2022-07-24T02:56:42;14.03;;;12.63;;
2458;SDS011;1241;50.920;6.936;2022-07-24T02:59:08;13.40;;;12.40;;
2458;SDS011;1241;50.920;6.936;2022-07-24T03:01:34;15.33;;;14.03;;
2458;SDS011;1241;50.920;6.936;2022-07-24T03:03:59;15.70;;;13.83;;
2458;SDS011;1241;50.920;6.936;2022-07-24T03:06:25;14.57;;;13.20;;
2458;SDS011;1241;50.920;6.936;2022-07-24T03:08:51;14.03;;;12.80;;
2458;SDS011;1241;50.920;6.936;2022-07-24T03:11:17;14.57;;;13.40;;
2458;SDS011;1241;50.920;6.936;2022-07-24T03:13:42;13.83;;;12.57;;
2458;SDS011;1241;50.920;6.936;2022-07-24T03:16:08;14.77;;;13.27;;
2458;SDS011;1241;50.920;6.936;2022-07-24T03:18:35;13.33;;;12.20;;
2458;SDS011;1241;50.920;6.936;2022-07-24T03:21:00;15.90;;;14.17;;
2458;SDS011;1241;50.920;6.936;2022-07-24T03:23:26;15.07;;;13.87;;
2458;SDS011;1241;50.920;6.936;2022-07-24T03:25:52;14.57;;;13.37;;
2458;SDS011;1241;50.920;6.936;2022-07-24T03:28:19;14.27;;;13.07;;
2458;SDS011;1241;50.920;6.936;2022-07-24T03:30:45;14.50;;;13.33;;
2458;SDS011;1241;50.920;6.936;2022-07-24T03:33:11;14.07;;;12.77;;
2458;SDS011;1241;50.920;6.936;2022-07-24T03:35:37;13.93;;;12.63;;
2458;SDS011;1241;50.920;6.936;2022-07-24T03:38:03;17.13;;;13.60;;
2458;SDS011;1241;50.920;6.936;2022-07-24T03:40:28;13.93;;;12.70;;
2458;SDS011;1241;50.920;6.936;2022-07-24T03:42:54;14.93;;;13.73;;
2458;SDS011;1241;50.920;6.936;2022-07-24T03:45:20;14.50;;;13.20;;
2458;SDS011;1241;50.920;6.936;2022-07-24T03:47:46;14.07;;;12.97;;
2458;SDS011;1241;50.920;6.936;2022-07-24T03:50:12;13.60;;;12.60;;
2458;SDS011;1241;50.920;6.936;2022-07-24T03:52:38;13.40;;;12.37;;
2458;SDS011;1241;50.920;6.936;2022-07-24T03:55:03;14.87;;;13.57;;
2458;SDS011;1241;50.920;6.936;2022-07-24T03:57:30;13.83;;;12.73;;
2458;SDS011;1241;50.920;6.936;2022-07-24T03:59:55;14.37;;;13.17;;
2458;SDS011;1241;50.920;6.936;2022-07-24T04:02:21;14.10;;;12.90;;
2458;SDS011;1241;50.920;6.936;2022-07-24T04:04:47;13.27;;;11.90;;
2458;SDS011;1241;50.920;6.936;2022-07-24T04:07:12;13.13;;;11.83;;
2458;SDS011;1241;50.920;6.936;2022-07-24T04:09:38;14.07;;;12.83;;
2458;SDS011;1241;50.920;6.936;2022-07-24T04:12:04;14.23;;;13.03;;
2458;SDS011;1241;50.920;6.936;2022-07-24T04:14:30;13.60;;;12.20;;
2458;SDS011;1241;50.920;6.936;2022-07-24T04:16:56;13.10;;;12.00;;
2458;SDS011;1241;50.920;6.936;2022-07-24T04:19:21;14.10;;;12.90;;
2458;SDS011;1241;50.920;6.936;2022-07-24T04:21:47;14.60;;;13.10;;
2458;SDS011;1241;50.920;6.936;2022-07-24T04:24:13;14.53;;;13.40;;
2458;SDS011;1241;50.920;6.936;2022-07-24T04:26:38;13.13;;;12.03;;
2458;SDS011;1241;50.920;6.936;2022-07-24T04:29:04;12.87;;;11.57;;
2458;SDS011;1241;50.920;6.936;2022-07-24T04:31:30;13.93;;;12.83;;
2458;SDS011;1241;50.920;6.936;2022-07-24T04:33:55;13.97;;;12.67;;
2458;SDS011;1241;50.920;6.936;2022-07-24T04:36:22;12.37;;;11.27;;
2458;SDS011;1241;50.920;6.936;2022-07-24T04:38:47;12.63;;;11.70;;
2458;SDS011;1241;50.920;6.936;2022-07-24T04:41:13;12.27;;;11.27;;
2458;SDS011;1241;50.920;6.936;2022-07-24T04:43:41;14.03;;;12.80;;
2458;SDS011;1241;50.920;6.936;2022-07-24T04:46:06;11.60;;;10.60;;
2458;SDS011;1241;50.920;6.936;2022-07-24T04:48:32;13.30;;;12.30;;
2458;SDS011;1241;50.920;6.936;2022-07-24T04:50:58;10.80;;;10.00;;
2458;SDS011;1241;50.920;6.936;2022-07-24T04:53:23;11.70;;;10.80;;
2458;SDS011;1241;50.920;6.936;2022-07-24T04:55:49;11.43;;;10.50;;
2458;SDS011;1241;50.920;6.936;2022-07-24T04:58:15;11.27;;;10.47;;
2458;SDS011;1241;50.920;6.936;2022-07-24T05:00:40;11.20;;;10.40;;
2458;SDS011;1241;50.920;6.936;2022-07-24T05:03:06;10.97;;;9.97;;
2458;SDS011;1241;50.920;6.936;2022-07-24T05:05:32;11.30;;;10.40;;
2458;SDS011;1241;50.920;6.936;2022-07-24T05:07:58;10.83;;;9.93;;
2458;SDS011;1241;50.920;6.936;2022-07-24T05:10:23;10.90;;;10.00;;
2458;SDS011;1241;50.920;6.936;2022-07-24T05:12:49;11.80;;;11.00;;
2458;SDS011;1241;50.920;6.936;2022-07-24T05:15:14;10.40;;;9.50;;
2458;SDS011;1241;50.920;6.936;2022-07-24T05:17:40;12.07;;;11.17;;
2458;SDS011;1241;50.920;6.936;2022-07-24T05:20:06;11.37;;;9.90;;
2458;SDS011;1241;50.920;6.936;2022-07-24T05:22:33;11.30;;;10.17;;
2458;SDS011;1241;50.920;6.936;2022-07-24T05:24:58;11.17;;;10.23;;
2458;SDS011;1241;50.920;6.936;2022-07-24T05:27:24;10.60;;;9.43;;
2458;SDS011;1241;50.920;6.936;2022-07-24T05:29:50;11.40;;;10.37;;
2458;SDS011;1241;50.920;6.936;2022-07-24T05:32:15;9.80;;;9.10;;
2458;SDS011;1241;50.920;6.936;2022-07-24T05:34:41;10.07;;;9.10;;
2458;SDS011;1241;50.920;6.936;2022-07-24T05:37:07;11.03;;;10.13;;
2458;SDS011;1241;50.920;6.936;2022-07-24T05:39:33;10.80;;;10.00;;
2458;SDS011;1241;50.920;6.936;2022-07-24T05:41:59;11.33;;;10.53;;
2458;SDS011;1241;50.920;6.936;2022-07-24T05:44:25;10.23;;;9.50;;
2458;SDS011;1241;50.920;6.936;2022-07-24T05:46:50;10.30;;;9.50;;
2458;SDS011;1241;50.920;6.936;2022-07-24T05:49:16;10.67;;;9.63;;
2458;SDS011;1241;50.920;6.936;2022-07-24T05:51:42;10.53;;;9.73;;
2458;SDS011;1241;50.920;6.936;2022-07-24T05:54:08;10.73;;;9.83;;
2458;SDS011;1241;50.920;6.936;2022-07-24T05:56:34;10.33;;;9.33;;
2458;SDS011;1241;50.920;6.936;2022-07-24T05:58:59;10.30;;;9.60;;
2458;SDS011;1241;50.920;6.936;2022-07-24T06:01:25;10.90;;;10.00;;
2458;SDS011;1241;50.920;6.936;2022-07-24T06:03:51;10.43;;;9.50;;
2458;SDS011;1241;50.920;6.936;2022-07-24T06:06:16;9.63;;;8.93;;
2458;SDS011;1241;50.920;6.936;2022-07-24T06:08:42;10.33;;;9.53;;
2458;SDS011;1241;50.920;6.936;2022-07-24T06:11:08;10.30;;;9.30;;
2458;SDS011;1241;50.920;6.936;2022-07-24T06:13:33;10.57;;;9.77;;
2458;SDS011;1241;50.920;6.936;2022-07-24T06:15:59;10.60;;;9.67;;
2458;SDS011;1241;50.920;6.936;2022-07-24T06:18:25;9.90;;;9.20;;
2458;SDS011;1241;50.920;6.936;2022-07-24T06:20:50;11.13;;;10.23;;
2458;SDS011;1241;50.920;6.936;2022-07-24T06:23:16;10.10;;;9.30;;
2458;SDS011;1241;50.920;6.936;2022-07-24T06:25:42;11.03;;;10.07;;
2458;SDS011;1241;50.920;6.936;2022-07-24T06:28:07;10.50;;;9.70;;
2458;SDS011;1241;50.920;6.936;2022-07-24T06:30:33;10.13;;;9.10;;
2458;SDS011;1241;50.920;6.936;2022-07-24T06:32:59;10.03;;;9.23;;
2458;SDS011;1241;50.920;6.936;2022-07-24T06:35:26;10.60;;;9.83;;
2458;SDS011;1241;50.920;6.936;2022-07-24T06:37:53;9.50;;;8.60;;
2458;SDS011;1241;50.920;6.936;2022-07-24T06:40:20;9.90;;;9.03;;
2458;SDS011;1241;50.920;6.936;2022-07-24T06:42:46;8.83;;;8.13;;
2458;SDS011;1241;50.920;6.936;2022-07-24T06:45:13;8.67;;;8.10;;
2458;SDS011;1241;50.920;6.936;2022-07-24T06:47:39;10.00;;;9.20;;
2458;SDS011;1241;50.920;6.936;2022-07-24T06:50:06;9.77;;;9.17;;
2458;SDS011;1241;50.920;6.936;2022-07-24T06:52:31;10.10;;;9.40;;
2458;SDS011;1241;50.920;6.936;2022-07-24T06:54:57;9.63;;;8.93;;
2458;SDS011;1241;50.920;6.936;2022-07-24T06:57:23;10.10;;;9.30;;
2458;SDS011;1241;50.920;6.936;2022-07-24T06:59:53;9.50;;;8.90;;
2458;SDS011;1241;50.920;6.936;2022-07-24T07:02:19;10.40;;;9.67;;
2458;SDS011;1241;50.920;6.936;2022-07-24T07:04:46;9.03;;;8.43;;
2458;SDS011;1241;50.920;6.936;2022-07-24T07:07:13;10.07;;;9.20;;
2458;SDS011;1241;50.920;6.936;2022-07-24T07:09:40;9.43;;;8.63;;
2458;SDS011;1241;50.920;6.936;2022-07-24T07:12:09;9.17;;;8.57;;
2458;SDS011;1241;50.920;6.936;2022-07-24T07:14:35;9.77;;;9.07;;
2458;SDS011;1241;50.920;6.936;2022-07-24T07:17:01;10.70;;;9.50;;
2458;SDS011;1241;50.920;6.936;2022-07-24T07:19:27;9.70;;;9.07;;
2458;SDS011;1241;50.920;6.936;2022-07-24T07:21:53;10.23;;;9.40;;
2458;SDS011;1241;50.920;6.936;2022-07-24T07:24:19;10.40;;;9.70;;
2458;SDS011;1241;50.920;6.936;2022-07-24T07:26:45;9.90;;;9.10;;
2458;SDS011;1241;50.920;6.936;2022-07-24T07:29:10;10.90;;;10.10;;
2458;SDS011;1241;50.920;6.936;2022-07-24T07:31:36;10.63;;;9.80;;
2458;SDS011;1241;50.920;6.936;2022-07-24T07:34:02;10.30;;;9.50;;
2458;SDS011;1241;50.920;6.936;2022-07-24T07:36:28;10.00;;;9.30;;
2458;SDS011;1241;50.920;6.936;2022-07-24T07:38:53;10.03;;;9.43;;
2458;SDS011;1241;50.920;6.936;2022-07-24T07:41:20;10.27;;;9.57;;
2458;SDS011;1241;50.920;6.936;2022-07-24T07:43:46;10.33;;;9.53;;
2458;SDS011;1241;50.920;6.936;2022-07-24T07:46:15;10.07;;;9.43;;
2458;SDS011;1241;50.920;6.936;2022-07-24T07:48:40;10.73;;;10.03;;
2458;SDS011;1241;50.920;6.936;2022-07-24T07:51:06;9.33;;;8.83;;
2458;SDS011;1241;50.920;6.936;2022-07-24T07:53:32;9.43;;;8.73;;
2458;SDS011;1241;50.920;6.936;2022-07-24T07:55:58;10.27;;;9.50;;
2458;SDS011;1241;50.920;6.936;2022-07-24T07:58:24;9.80;;;9.00;;
2458;SDS011;1241;50.920;6.936;2022-07-24T08:00:52;9.40;;;8.70;;
2458;SDS011;1241;50.920;6.936;2022-07-24T08:03:18;10.37;;;9.50;;
2458;SDS011;1241;50.920;6.936;2022-07-24T08:05:44;10.03;;;9.33;;
2458;SDS011;1241;50.920;6.936;2022-07-24T08:08:10;10.80;;;10.00;;
2458;SDS011;1241;50.920;6.936;2022-07-24T08:10:36;9.53;;;8.83;;
2458;SDS011;1241;50.920;6.936;2022-07-24T08:13:01;11.40;;;10.50;;
2458;SDS011;1241;50.920;6.936;2022-07-24T08:15:27;10.17;;;9.47;;
2458;SDS011;1241;50.920;6.936;2022-07-24T08:17:53;10.00;;;9.40;;
2458;SDS011;1241;50.920;6.936;2022-07-24T08:20:20;10.83;;;9.93;;
2458;SDS011;1241;50.920;6.936;2022-07-24T08:22:47;9.87;;;9.07;;
2458;SDS011;1241;50.920;6.936;2022-07-24T08:25:13;10.60;;;9.80;;
2458;SDS011;1241;50.920;6.936;2022-07-24T08:27:38;10.17;;;9.37;;
2458;SDS011;1241;50.920;6.936;2022-07-24T08:30:05;9.73;;;9.03;;
2458;SDS011;1241;50.920;6.936;2022-07-24T08:32:31;9.90;;;9.20;;
2458;SDS011;1241;50.920;6.936;2022-07-24T08:34:57;11.60;;;10.47;;
2458;SDS011;1241;50.920;6.936;2022-07-24T08:37:23;11.23;;;10.13;;
2458;SDS011;1241;50.920;6.936;2022-07-24T08:39:49;10.83;;;9.97;;
2458;SDS011;1241;50.920;6.936;2022-07-24T08:42:14;9.70;;;8.97;;
2458;SDS011;1241;50.920;6.936;2022-07-24T08:44:40;9.60;;;8.90;;
2458;SDS011;1241;50.920;6.936;2022-07-24T08:47:06;9.17;;;8.53;;
2458;SDS011;1241;50.920;6.936;2022-07-24T08:49:36;10.17;;;9.47;;
2458;SDS011;1241;50.920;6.936;2022-07-24T08:52:03;9.30;;;8.50;;
2458;SDS011;1241;50.920;6.936;2022-07-24T08:54:33;10.40;;;9.70;;
2458;SDS011;1241;50.920;6.936;2022-07-24T08:57:00;10.07;;;9.07;;
2458;SDS011;1241;50.920;6.936;2022-07-24T08:59:27;10.60;;;9.70;;
2458;SDS011;1241;50.920;6.936;2022-07-24T09:01:53;10.33;;;9.53;;
2458;SDS011;1241;50.920;6.936;2022-07-24T09:04:41;9.37;;;8.63;;
2458;SDS011;1241;50.920;6.936;2022-07-24T09:07:12;9.37;;;8.77;;
2458;SDS011;1241;50.920;6.936;2022-07-24T09:09:42;10.20;;;9.50;;
2458;SDS011;1241;50.920;6.936;2022-07-24T09:12:21;10.67;;;9.77;;
2458;SDS011;1241;50.920;6.936;2022-07-24T09:14:47;10.23;;;9.33;;
2458;SDS011;1241;50.920;6.936;2022-07-24T09:17:14;11.10;;;10.10;;
2458;SDS011;1241;50.920;6.936;2022-07-24T09:27:46;10.83;;;9.90;;
2458;SDS011;1241;50.920;6.936;2022-07-24T09:30:31;11.97;;;10.77;;
2458;SDS011;1241;50.920;6.936;2022-07-24T09:33:03;9.77;;;9.07;;
2458;SDS011;1241;50.920;6.936;2022-07-24T09:38:15;10.03;;;9.23;;
2458;SDS011;1241;50.920;6.936;2022-07-24T09:40:47;11.07;;;10.27;;
2458;SDS011;1241;50.920;6.936;2022-07-24T09:45:56;9.90;;;9.10;;
2458;SDS011;1241;50.920;6.936;2022-07-24T09:48:33;9.70;;;9.00;;
2458;SDS011;1241;50.920;6.936;2022-07-24T09:51:05;10.30;;;9.40;;
2458;SDS011;1241;50.920;6.936;2022-07-24T09:53:35;10.27;;;9.33;;
2458;SDS011;1241;50.920;6.936;2022-07-24T09:58:32;9.10;;;8.50;;
2458;SDS011;1241;50.920;6.936;2022-07-24T10:01:03;11.37;;;10.23;;
2458;SDS011;1241;50.920;6.936;2022-07-24T10:03:33;10.07;;;9.37;;
2458;SDS011;1241;50.920;6.936;2022-07-24T10:06:02;9.93;;;9.33;;
2458;SDS011;1241;50.920;6.936;2022-07-24T10:08:31;9.57;;;8.67;;
2458;SDS011;1241;50.920;6.936;2022-07-24T10:10:58;8.40;;;7.80;;
2458;SDS011;1241;50.920;6.936;2022-07-24T10:13:24;10.57;;;9.70;;
2458;SDS011;1241;50.920;6.936;2022-07-24T10:15:58;10.73;;;9.87;;
2458;SDS011;1241;50.920;6.936;2022-07-24T10:21:09;9.97;;;9.23;;
2458;SDS011;1241;50.920;6.936;2022-07-24T10:26:38;10.27;;;9.47;;
2458;SDS011;1241;50.920;6.936;2022-07-24T10:31:46;9.53;;;8.73;;
2458;SDS011;1241;50.920;6.936;2022-07-24T10:37:16;9.67;;;8.83;;
2458;SDS011;1241;50.920;6.936;2022-07-24T10:42:14;10.50;;;9.53;;
2458;SDS011;1241;50.920;6.936;2022-07-24T10:44:40;10.57;;;9.87;;
2458;SDS011;1241;50.920;6.936;2022-07-24T10:47:07;9.83;;;8.83;;
2458;SDS011;1241;50.920;6.936;2022-07-24T10:52:21;10.57;;;9.77;;
2458;SDS011;1241;50.920;6.936;2022-07-24T10:57:49;10.50;;;9.70;;
2458;SDS011;1241;50.920;6.936;2022-07-24T11:00:22;10.50;;;9.70;;
2458;SDS011;1241;50.920;6.936;2022-07-24T11:02:57;9.63;;;8.80;;
2458;SDS011;1241;50.920;6.936;2022-07-24T11:05:27;9.57;;;8.77;;
2458;SDS011;1241;50.920;6.936;2022-07-24T11:10:50;11.00;;;10.17;;
2458;SDS011;1241;50.920;6.936;2022-07-24T11:19:26;9.20;;;8.43;;
2458;SDS011;1241;50.920;6.936;2022-07-24T11:21:29;9.87;;;9.17;;
2458;SDS011;1241;50.920;6.936;2022-07-24T11:26:56;9.33;;;8.70;;
2458;SDS011;1241;50.920;6.936;2022-07-24T11:31:59;8.97;;;8.37;;
2458;SDS011;1241;50.920;6.936;2022-07-24T11:34:26;10.17;;;9.37;;
2458;SDS011;1241;50.920;6.936;2022-07-24T11:36:53;10.20;;;9.30;;
2458;SDS011;1241;50.920;6.936;2022-07-24T11:39:25;9.50;;;8.90;;
2458;SDS011;1241;50.920;6.936;2022-07-24T11:41:58;10.47;;;9.67;;
2458;SDS011;1241;50.920;6.936;2022-07-24T11:44:30;9.97;;;9.27;;
2458;SDS011;1241;50.920;6.936;2022-07-24T11:46:58;10.07;;;9.27;;
2458;SDS011;1241;50.920;6.936;2022-07-24T11:49:43;10.13;;;9.33;;
2458;SDS011;1241;50.920;6.936;2022-07-24T11:52:15;9.23;;;8.53;;
2458;SDS011;1241;50.920;6.936;2022-07-24T11:54:43;10.13;;;9.33;;
2458;SDS011;1241;50.920;6.936;2022-07-24T11:57:19;10.73;;;9.93;;
2458;SDS011;1241;50.920;6.936;2022-07-24T11:59:48;10.90;;;9.90;;
2458;SDS011;1241;50.920;6.936;2022-07-24T12:02:15;9.70;;;9.00;;
2458;SDS011;1241;50.920;6.936;2022-07-24T12:04:42;8.67;;;8.07;;
2458;SDS011;1241;50.920;6.936;2022-07-24T12:07:10;9.50;;;8.90;;
2458;SDS011;1241;50.920;6.936;2022-07-24T12:09:48;9.47;;;8.80;;
2458;SDS011;1241;50.920;6.936;2022-07-24T12:14:50;11.67;;;8.27;;
2458;SDS011;1241;50.920;6.936;2022-07-24T12:17:17;10.80;;;10.00;;
2458;SDS011;1241;50.920;6.936;2022-07-24T12:19:50;10.93;;;9.90;;
2458;SDS011;1241;50.920;6.936;2022-07-24T12:22:17;9.27;;;8.60;;
2458;SDS011;1241;50.920;6.936;2022-07-24T12:24:44;10.17;;;9.37;;
2458;SDS011;1241;50.920;6.936;2022-07-24T12:27:10;10.00;;;9.20;;
2458;SDS011;1241;50.920;6.936;2022-07-24T12:29:40;9.67;;;8.97;;
2458;SDS011;1241;50.920;6.936;2022-07-24T12:32:17;8.67;;;8.03;;
2458;SDS011;1241;50.920;6.936;2022-07-24T12:34:44;9.83;;;9.20;;
2458;SDS011;1241;50.920;6.936;2022-07-24T12:37:14;11.87;;;10.87;;
2458;SDS011;1241;50.920;6.936;2022-07-24T12:39:48;12.17;;;11.07;;
2458;SDS011;1241;50.920;6.936;2022-07-24T12:42:14;9.30;;;8.60;;
2458;SDS011;1241;50.920;6.936;2022-07-24T12:44:41;8.50;;;8.00;;
2458;SDS011;1241;50.920;6.936;2022-07-24T12:47:08;10.80;;;9.80;;
2458;SDS011;1241;50.920;6.936;2022-07-24T12:49:41;11.03;;;10.20;;
2458;SDS011;1241;50.920;6.936;2022-07-24T12:52:19;8.50;;;7.80;;
2458;SDS011;1241;50.920;6.936;2022-07-24T12:54:49;9.57;;;8.87;;
2458;SDS011;1241;50.920;6.936;2022-07-24T12:57:19;8.60;;;8.03;;
2458;SDS011;1241;50.920;6.936;2022-07-24T12:59:47;9.60;;;8.90;;
2458;SDS011;1241;50.920;6.936;2022-07-24T13:02:23;11.57;;;10.57;;
2458;SDS011;1241;50.920;6.936;2022-07-24T13:04:51;9.60;;;9.00;;
2458;SDS011;1241;50.920;6.936;2022-07-24T13:07:19;10.10;;;9.20;;
2458;SDS011;1241;50.920;6.936;2022-07-24T13:09:46;9.20;;;8.40;;
2458;SDS011;1241;50.920;6.936;2022-07-24T13:12:12;9.73;;;9.03;;
2458;SDS011;1241;50.920;6.936;2022-07-24T13:14:39;9.77;;;9.00;;
2458;SDS011;1241;50.920;6.936;2022-07-24T13:17:06;10.03;;;9.13;;
2458;SDS011;1241;50.920;6.936;2022-07-24T13:19:35;8.50;;;7.90;;
2458;SDS011;1241;50.920;6.936;2022-07-24T13:22:02;9.47;;;8.80;;
2458;SDS011;1241;50.920;6.936;2022-07-24T13:24:28;7.97;;;7.47;;
2458;SDS011;1241;50.920;6.936;2022-07-24T13:26:55;8.77;;;8.10;;
2458;SDS011;1241;50.920;6.936;2022-07-24T13:29:20;9.50;;;8.80;;
2458;SDS011;1241;50.920;6.936;2022-07-24T13:31:49;8.53;;;7.73;;
2458;SDS011;1241;50.920;6.936;2022-07-24T13:34:15;9.00;;;8.10;;
2458;SDS011;1241;50.920;6.936;2022-07-24T13:36:41;8.77;;;8.00;;
2458;SDS011;1241;50.920;6.936;2022-07-24T13:39:07;8.13;;;7.63;;
2458;SDS011;1241;50.920;6.936;2022-07-24T13:41:33;8.53;;;7.93;;
2458;SDS011;1241;50.920;6.936;2022-07-24T13:43:59;7.83;;;7.23;;
2458;SDS011;1241;50.920;6.936;2022-07-24T13:46:25;7.83;;;7.40;;
2458;SDS011;1241;50.920;6.936;2022-07-24T13:48:51;8.90;;;8.30;;
2458;SDS011;1241;50.920;6.936;2022-07-24T13:51:17;7.37;;;6.87;;
2458;SDS011;1241;50.920;6.936;2022-07-24T13:53:44;7.80;;;7.20;;
2458;SDS011;1241;50.920;6.936;2022-07-24T13:56:10;8.73;;;8.13;;
2458;SDS011;1241;50.920;6.936;2022-07-24T13:58:37;8.80;;;8.00;;
2458;SDS011;1241;50.920;6.936;2022-07-24T14:01:05;9.37;;;8.67;;
2458;SDS011;1241;50.920;6.936;2022-07-24T14:03:32;7.50;;;7.00;;
2458;SDS011;1241;50.920;6.936;2022-07-24T14:05:58;8.47;;;7.77;;
2458;SDS011;1241;50.920;6.936;2022-07-24T14:08:25;8.20;;;7.70;;
2458;SDS011;1241;50.920;6.936;2022-07-24T14:10:52;8.57;;;7.97;;
2458;SDS011;1241;50.920;6.936;2022-07-24T14:13:17;7.87;;;7.27;;
2458;SDS011;1241;50.920;6.936;2022-07-24T14:15:43;8.77;;;8.20;;
2458;SDS011;1241;50.920;6.936;2022-07-24T14:18:09;9.50;;;8.70;;
2458;SDS011;1241;50.920;6.936;2022-07-24T14:20:34;8.30;;;7.80;;
2458;SDS011;1241;50.920;6.936;2022-07-24T14:23:00;8.30;;;7.70;;
2458;SDS011;1241;50.920;6.936;2022-07-24T14:25:26;8.60;;;7.93;;
2458;SDS011;1241;50.920;6.936;2022-07-24T14:27:51;9.20;;;8.50;;
2458;SDS011;1241;50.920;6.936;2022-07-24T14:30:17;9.53;;;8.63;;
2458;SDS011;1241;50.920;6.936;2022-07-24T14:32:43;8.03;;;7.23;;
2458;SDS011;1241;50.920;6.936;2022-07-24T14:35:09;8.20;;;7.70;;
2458;SDS011;1241;50.920;6.936;2022-07-24T14:37:36;7.90;;;7.30;;
2458;SDS011;1241;50.920;6.936;2022-07-24T14:40:03;7.93;;;7.33;;
2458;SDS011;1241;50.920;6.936;2022-07-24T14:42:30;10.80;;;10.00;;
2458;SDS011;1241;50.920;6.936;2022-07-24T14:44:56;7.90;;;7.30;;
2458;SDS011;1241;50.920;6.936;2022-07-24T14:47:22;8.30;;;7.70;;
2458;SDS011;1241;50.920;6.936;2022-07-24T14:49:48;7.93;;;7.33;;
2458;SDS011;1241;50.920;6.936;2022-07-24T14:52:14;8.83;;;8.03;;
2458;SDS011;1241;50.920;6.936;2022-07-24T14:54:40;9.03;;;8.17;;
2458;SDS011;1241;50.920;6.936;2022-07-24T14:57:06;8.03;;;7.43;;
2458;SDS011;1241;50.920;6.936;2022-07-24T14:59:33;7.93;;;7.43;;
2458;SDS011;1241;50.920;6.936;2022-07-24T15:01:59;8.50;;;7.90;;
2458;SDS011;1241;50.920;6.936;2022-07-24T15:04:25;8.70;;;8.10;;
2458;SDS011;1241;50.920;6.936;2022-07-24T15:06:50;7.53;;;7.03;;
2458;SDS011;1241;50.920;6.936;2022-07-24T15:09:16;7.80;;;7.30;;
2458;SDS011;1241;50.920;6.936;2022-07-24T15:11:42;7.97;;;7.47;;
2458;SDS011;1241;50.920;6.936;2022-07-24T15:14:07;8.00;;;7.50;;
2458;SDS011;1241;50.920;6.936;2022-07-24T15:16:33;8.10;;;7.50;;
2458;SDS011;1241;50.920;6.936;2022-07-24T15:18:59;7.37;;;6.97;;
2458;SDS011;1241;50.920;6.936;2022-07-24T15:21:25;8.10;;;7.60;;
2458;SDS011;1241;50.920;6.936;2022-07-24T15:23:50;9.00;;;8.40;;
2458;SDS011;1241;50.920;6.936;2022-07-24T15:26:16;7.63;;;7.03;;
2458;SDS011;1241;50.920;6.936;2022-07-24T15:28:42;8.17;;;7.43;;
2458;SDS011;1241;50.920;6.936;2022-07-24T15:31:07;8.23;;;7.67;;
2458;SDS011;1241;50.920;6.936;2022-07-24T15:33:35;10.03;;;9.23;;
2458;SDS011;1241;50.920;6.936;2022-07-24T15:36:01;9.53;;;8.80;;
2458;SDS011;1241;50.920;6.936;2022-07-24T15:38:26;8.17;;;7.47;;
2458;SDS011;1241;50.920;6.936;2022-07-24T15:40:52;8.00;;;7.43;;
2458;SDS011;1241;50.920;6.936;2022-07-24T15:43:18;8.40;;;7.80;;
2458;SDS011;1241;50.920;6.936;2022-07-24T15:45:44;7.90;;;7.30;;
2458;SDS011;1241;50.920;6.936;2022-07-24T15:48:10;9.00;;;8.30;;
2458;SDS011;1241;50.920;6.936;2022-07-24T15:50:36;7.70;;;7.10;;